Terminal Aerodrome Forecast
Issued by NWS

Home | Current Version | Previous Version | Graphics & Text | Print | Product List | Glossary On
Versions: 1 2 3 4 5 6 7 8 9 10 11 12 13 14 15 16
000
FTUS42 KMHX 280500 RRA
TAFISO
TAF
KISO 280548Z 2806/2906 22003KT P6SM BKN150
     FM281200 22006KT P6SM OVC080
     FM281700 22007KT P6SM OVC040
     FM282300 21003KT 5SM BR VCSH OVC020
     FM290300 20003KT 2SM BR VCSH OVC009
      AMD LTD TO CLD VIS AND WIND=

USA.gov is the U.S. government's official web portal to all federal, state and local government web resources and services.